createdAt,value
2022-08-03T00:01:56.841Z,61.14
2022-08-03T00:06:59.689Z,57.99
2022-08-03T00:12:02.717Z,61.03
2022-08-03T00:17:05.908Z,66.13
2022-08-03T00:22:08.685Z,61.79
2022-08-03T00:27:11.563Z,58.07
2022-08-03T00:32:19.467Z,60.93
2022-08-03T00:37:41.641Z,66.32
2022-08-03T00:42:48.743Z,61.68
2022-08-03T00:47:51.813Z,58.00
2022-08-03T00:52:57.339Z,60.62
2022-08-03T00:58:01.644Z,65.70
2022-08-03T01:03:05.921Z,61.31
2022-08-03T01:08:35.418Z,57.64
2022-08-03T01:14:03.566Z,60.32
2022-08-03T01:19:24.395Z,65.61
2022-08-03T01:24:55.165Z,59.78
2022-08-03T01:30:07.133Z,57.65
2022-08-03T01:35:16.665Z,60.25
2022-08-03T01:40:22.293Z,65.46
2022-08-03T01:45:26.898Z,60.47
2022-08-03T01:50:32.011Z,56.85
2022-08-03T01:55:36.780Z,59.45
2022-08-03T02:00:41.487Z,65.31
2022-08-03T02:05:46.374Z,60.98
2022-08-03T02:10:50.765Z,56.94
2022-08-03T02:15:54.872Z,59.52
2022-08-03T02:20:59.291Z,65.27
2022-08-03T02:26:07.524Z,61.25
2022-08-03T02:31:18.210Z,57.34
2022-08-03T02:36:25.494Z,59.94
2022-08-03T02:41:32.738Z,65.55
2022-08-03T02:46:45.630Z,61.00
2022-08-03T02:51:50.591Z,57.38
2022-08-03T02:56:56.197Z,60.95
2022-08-03T03:02:01.625Z,66.28
2022-08-03T03:07:05.356Z,61.75
2022-08-03T03:12:11.312Z,58.11
2022-08-03T03:17:17.093Z,61.26
2022-08-03T03:22:21.477Z,65.97
2022-08-03T03:27:24.568Z,60.83
2022-08-03T03:32:29.096Z,57.54
2022-08-03T03:37:31.995Z,60.64
2022-08-03T03:42:35.321Z,65.88
2022-08-03T03:47:38.377Z,61.25
2022-08-03T03:52:41.339Z,57.60
2022-08-03T03:57:44.694Z,60.23
2022-08-03T04:02:48.195Z,65.17
2022-08-03T04:08:17.541Z,60.62
2022-08-03T04:13:22.194Z,57.37
2022-08-03T04:18:27.858Z,60.60
2022-08-03T04:23:36.277Z,65.56
2022-08-03T04:28:43.058Z,60.55
2022-08-03T04:33:46.997Z,57.55
2022-08-03T04:39:03.851Z,60.53
2022-08-03T04:44:08.815Z,65.44
2022-08-03T04:49:12.334Z,60.38
2022-08-03T04:54:18.933Z,57.18
2022-08-03T04:59:21.741Z,60.00
2022-08-03T05:04:24.527Z,63.99
2022-08-03T05:09:50.066Z,58.35
2022-08-03T05:14:50.170Z,57.36
2022-08-03T05:19:53.057Z,59.20
2022-08-03T05:24:56.364Z,61.27
2022-08-03T05:30:30.764Z,64.51
2022-08-03T05:35:55.699Z,57.57
2022-08-03T05:40:46.985Z,56.03
2022-08-03T05:46:11.976Z,56.98
2022-08-03T05:51:16.032Z,57.86
2022-08-03T05:56:22.743Z,57.67
2022-08-03T06:01:25.698Z,56.46
2022-08-03T06:06:32.161Z,55.69
2022-08-03T06:11:35.516Z,55.29
2022-08-03T06:16:38.410Z,54.48
2022-08-03T06:21:41.355Z,53.87
2022-08-03T06:26:44.376Z,53.20
2022-08-03T06:31:47.265Z,50.53
2022-08-03T06:36:52.347Z,49.03
2022-08-03T06:41:55.651Z,45.73
2022-08-03T06:47:09.261Z,38.00
2022-08-03T06:52:13.235Z,36.79
2022-08-03T06:57:36.107Z,32.42
2022-08-03T07:02:40.107Z,30.73
2022-08-03T07:07:44.111Z,27.75
2022-08-03T07:12:52.975Z,27.35
2022-08-03T07:17:59.669Z,26.96
2022-08-03T07:23:02.585Z,28.64
2022-08-03T07:28:05.640Z,29.43
2022-08-03T07:33:08.433Z,27.36
2022-08-03T07:38:11.220Z,25.43
2022-08-03T07:43:14.127Z,24.56
2022-08-03T07:48:17.359Z,22.90
2022-08-03T07:53:20.251Z,21.90
2022-08-03T07:58:24.464Z,22.72
2022-08-03T08:03:27.583Z,21.54
2022-08-03T08:08:50.431Z,22.72
2022-08-03T08:13:53.264Z,23.77
2022-08-03T08:18:56.012Z,24.74
2022-08-03T08:23:58.938Z,26.52
2022-08-03T08:29:01.681Z,28.18
2022-08-03T08:34:05.865Z,30.25
2022-08-03T08:39:08.702Z,32.07
2022-08-03T08:44:11.805Z,33.13
2022-08-03T08:49:23.220Z,34.01
2022-08-03T08:54:26.856Z,34.43
2022-08-03T08:59:48.404Z,34.02
2022-08-03T09:04:54.334Z,33.83
2022-08-03T09:10:11.294Z,32.64
2022-08-03T09:15:22.121Z,32.52
2022-08-03T09:20:26.886Z,32.40
2022-08-03T09:25:33.617Z,32.18
2022-08-03T09:30:38.473Z,32.28
2022-08-03T09:35:54.994Z,33.34
2022-08-03T09:41:01.039Z,33.29
2022-08-03T09:46:07.692Z,33.13
2022-08-03T09:51:13.056Z,32.45
2022-08-03T09:56:46.287Z,32.35
2022-08-03T10:01:49.097Z,32.75
2022-08-03T10:07:24.938Z,33.06
2022-08-03T10:12:29.226Z,33.40
2022-08-03T10:17:32.035Z,32.67
2022-08-03T10:22:36.904Z,31.81
2022-08-03T10:27:42.440Z,31.49
2022-08-03T10:33:02.958Z,31.20
2022-08-03T10:38:12.656Z,31.99
2022-08-03T10:43:23.137Z,31.69
2022-08-03T10:48:27.172Z,31.88
2022-08-03T10:53:55.074Z,32.79
2022-08-03T10:58:59.023Z,34.11
2022-08-03T11:04:10.966Z,34.48
2022-08-03T11:09:17.975Z,34.61
2022-08-03T11:14:22.191Z,34.70
2022-08-03T11:19:57.832Z,34.08
2022-08-03T11:25:02.612Z,34.61
2022-08-03T11:30:29.201Z,34.76
2022-08-03T11:35:43.858Z,34.90
2022-08-03T11:40:48.510Z,35.40
2022-08-03T11:46:07.424Z,35.58
2022-08-03T11:51:25.805Z,35.06
2022-08-03T11:56:30.113Z,35.17
2022-08-03T12:01:33.079Z,34.88
2022-08-03T12:06:55.234Z,35.36
2022-08-03T12:12:00.476Z,35.24
2022-08-03T12:17:04.290Z,34.55
2022-08-03T12:22:08.439Z,33.61
2022-08-03T12:27:11.330Z,34.84
2022-08-03T12:32:15.665Z,34.63
2022-08-03T12:37:22.638Z,34.77
2022-08-03T12:42:35.029Z,34.75
2022-08-03T12:48:00.775Z,35.01
2022-08-03T12:53:07.856Z,35.09
2022-08-03T12:58:33.644Z,35.08
2022-08-03T13:03:57.842Z,35.63
2022-08-03T13:09:08.067Z,35.77
2022-08-03T13:14:16.783Z,35.96
2022-08-03T13:19:23.259Z,36.02
2022-08-03T13:24:26.223Z,35.33
2022-08-03T13:29:29.205Z,36.31
2022-08-03T13:34:32.140Z,36.80
2022-08-03T13:39:35.111Z,36.69
2022-08-03T13:44:59.110Z,36.68
2022-08-03T13:50:03.085Z,36.47
2022-08-03T13:55:07.927Z,36.48
2022-08-03T14:00:11.963Z,36.69
2022-08-03T14:05:14.799Z,37.20
2022-08-03T14:10:19.846Z,37.75
2022-08-03T14:15:22.806Z,37.33
2022-08-03T14:20:36.869Z,37.19
2022-08-03T14:25:43.497Z,37.11
2022-08-03T14:30:55.865Z,37.38
2022-08-03T14:35:58.994Z,37.18
2022-08-03T14:41:01.931Z,37.50
2022-08-03T14:46:04.905Z,37.32
2022-08-03T14:51:07.893Z,37.71
2022-08-03T14:56:11.122Z,37.65
2022-08-03T15:02:04.776Z,37.36
2022-08-03T15:06:37.881Z,37.32
2022-08-03T15:11:40.889Z,37.72
2022-08-03T15:16:44.375Z,37.79
2022-08-03T15:21:47.753Z,37.79
2022-08-03T15:26:52.478Z,37.94
2022-08-03T15:31:55.273Z,38.23
2022-08-03T15:36:58.115Z,38.26
2022-08-03T15:42:00.998Z,37.95
2022-08-03T15:47:03.928Z,37.63
2022-08-03T15:52:06.855Z,37.47
2022-08-03T15:57:09.835Z,37.70
2022-08-03T16:02:13.052Z,37.47
2022-08-03T16:07:16.071Z,37.87
2022-08-03T16:12:18.899Z,37.99
2022-08-03T16:17:23.607Z,37.92
2022-08-03T16:22:27.207Z,37.72
2022-08-03T16:27:55.747Z,38.09
2022-08-03T16:32:53.160Z,38.07
2022-08-03T16:37:57.101Z,38.09
2022-08-03T16:43:00.055Z,38.05
2022-08-03T16:48:05.970Z,37.88
2022-08-03T16:53:10.124Z,38.42
2022-08-03T16:58:19.664Z,39.18
2022-08-03T17:03:42.677Z,38.66
2022-08-03T17:09:10.245Z,39.24
2022-08-03T17:14:14.925Z,39.62
2022-08-03T17:19:18.770Z,39.98
2022-08-03T17:24:28.321Z,40.39
2022-08-03T17:29:35.143Z,40.75
2022-08-03T17:34:38.700Z,40.71
2022-08-03T17:39:59.876Z,41.08
2022-08-03T17:45:03.813Z,41.52
2022-08-03T17:50:24.108Z,41.89
2022-08-03T17:55:56.673Z,42.41
2022-08-03T18:01:59.801Z,42.76
2022-08-03T18:06:55.769Z,43.58
2022-08-03T18:12:05.432Z,43.83
2022-08-03T18:17:15.785Z,44.14
2022-08-03T18:22:22.074Z,44.07
2022-08-03T18:27:45.412Z,44.29
2022-08-03T18:33:00.616Z,44.92
2022-08-03T18:38:04.244Z,45.67
2022-08-03T18:43:14.047Z,46.06
2022-08-03T18:48:40.638Z,46.23
2022-08-03T18:54:06.219Z,46.92
2022-08-03T18:59:14.854Z,47.11
2022-08-03T19:04:25.624Z,47.33
2022-08-03T19:09:35.076Z,47.41
2022-08-03T19:14:45.887Z,47.58
2022-08-03T19:19:51.348Z,47.69
2022-08-03T19:24:58.491Z,47.92
2022-08-03T19:30:11.857Z,49.47
2022-08-03T19:35:52.266Z,50.85
2022-08-03T19:40:50.916Z,52.04
2022-08-03T19:46:06.335Z,53.00
2022-08-03T19:51:12.157Z,53.75
2022-08-03T19:56:15.940Z,54.11
2022-08-03T20:06:43.467Z,55.24
2022-08-03T20:11:48.508Z,55.66
2022-08-03T20:16:51.899Z,55.07
2022-08-03T20:21:54.947Z,55.96
2022-08-03T20:27:00.400Z,56.50
2022-08-03T20:32:03.661Z,57.61
2022-08-03T20:37:09.474Z,57.54
2022-08-03T20:42:15.022Z,58.69
2022-08-03T20:47:27.128Z,59.51
2022-08-03T20:52:34.990Z,60.07
2022-08-03T20:57:53.741Z,61.38
2022-08-03T21:02:56.642Z,61.57
2022-08-03T21:08:07.151Z,67.87
2022-08-03T21:13:10.649Z,53.69
2022-08-03T21:13:25.800Z,62.88
2022-08-03T21:18:36.033Z,55.87
2022-08-03T21:23:49.892Z,56.56
2022-08-03T21:28:55.495Z,57.95
2022-08-03T21:34:02.664Z,59.23
2022-08-03T21:39:08.446Z,60.07
2022-08-03T21:44:11.897Z,60.79
2022-08-03T21:50:06.831Z,61.34
2022-08-03T21:54:43.484Z,68.59
2022-08-03T21:59:54.798Z,62.80
2022-08-03T22:04:58.164Z,57.64
2022-08-03T22:10:02.591Z,59.40
2022-08-03T22:15:09.512Z,61.52
2022-08-03T22:20:17.289Z,66.81
2022-08-03T22:25:24.795Z,62.20
2022-08-03T22:30:29.119Z,57.58
2022-08-03T22:35:47.288Z,59.82
2022-08-03T22:40:52.543Z,63.00
2022-08-03T22:46:09.528Z,65.07
2022-08-03T22:51:15.972Z,57.90
2022-08-03T22:56:19.119Z,59.30
2022-08-03T23:01:26.367Z,60.89
2022-08-03T23:06:38.949Z,61.88
2022-08-03T23:11:45.580Z,67.47
2022-08-03T23:16:50.802Z,61.77
2022-08-03T23:22:03.016Z,56.48
2022-08-03T23:27:09.681Z,58.19
2022-08-03T23:32:13.305Z,59.96
2022-08-03T23:37:17.808Z,60.90
2022-08-03T23:42:21.967Z,66.63
2022-08-03T23:47:25.136Z,61.17
2022-08-03T23:53:04.054Z,55.98
2022-08-03T23:58:28.282Z,57.63
